METAR Data
IDs: Format: Raw Decoded Include TAF

Data at: 0643 UTC 11 Dec 2018

PAKV 110553Z AUTO 06006KT 10SM CLR M11/M13 A2888 RMK AO2 SLP784 T11061133 11083 21106 56008 TSNO
PAKV 110453Z AUTO 06006KT 10SM BKN120 M10/M13 A2889 RMK AO2 SLP787 T11001133 TSNO
PAKV 110353Z AUTO 04010KT 10SM OVC110 M09/M13 A2890 RMK AO2 SLP789 T10891128 TSNO
PAKV 110253Z AUTO 04012KT 10SM OVC100 M08/M12 A2890 RMK AO2 SLP791 T10831117 58010 TSNO
PAKV 110153Z AUTO 04012KT 10SM BKN049 OVC095 M08/M12 A2892 RMK AO2 SLP796 T10831117 TSNO
PAKV 110053Z AUTO 04011KT 10SM SCT034 OVC049 M08/M11 A2893 RMK AO2 SLP800 T10831111 TSNO
PAKV 102353Z AUTO 03011KT 10SM OVC041 M09/M12 A2893 RMK AO2 SLP802 60000 T10891117 11083 21100 58012 TSNO
PAKV 102311Z AUTO 04010KT 10SM SCT030 BKN035 OVC042 M09/M11 A2894 RMK AO2 T10891111 TSNO
PAKV 102253Z AUTO 04011KT 10SM BKN028 OVC043 M09/M12 A2895 RMK AO2 SNE06 SLP807 P0000 T10891117 TSNO
PAKV 102153Z AUTO 03007KT 8SM -SN OVC027 M09/M12 A2896 RMK AO2 SLP809 P0000 T10891117 TSNO $
PAKV 102131Z AUTO 04010KT 4SM -SN BR OVC029 M09/M12 A2896 RMK AO2 P0000 T10941117 TSNO $
PAKV 102120Z AUTO 04009KT 3SM -SN BR OVC031 M09/M12 A2896 RMK AO2 P0000 T10941117 TSNO $
PAKV 102112Z AUTO 05007KT 1 3/4SM -SN BR OVC031 M09/M12 A2896 RMK AO2 P0000 T10941117 TSNO $
PAKV 102053Z AUTO 04009KT 1SM -SN BR OVC029 M09/M12 A2897 RMK AO2 SLP814 P0000 60000 T10941117 51000 TSNO $
PAKV 102050Z AUTO 04008KT 1 1/4SM -SN BR OVC029 M09/M12 A2897 RMK AO2 P0000 TSNO $
PAKV 102030Z AUTO 04008KT 2SM -SN BR OVC027 M09/M12 A2897 RMK AO2 P0000 T10941117 TSNO $
PAKV 101953Z AUTO 05008KT 7SM -SN OVC027 M09/M12 A2897 RMK AO2 SLP815 P0000 T10941117 TSNO $
PAKV 101853Z AUTO 05011KT 6SM -SN BR OVC029 M10/M12 A2897 RMK AO2 SNE30B45 SLP814 P0000 T11001122 TSNO
PAKV 101834Z AUTO 04010KT 9SM OVC029 M10/M12 A2897 RMK AO2 SNE30 P0000 T11001122 TSNO
PAKV 101818Z AUTO 04011G20KT 5SM -SN BR FEW021 OVC032 M10/M12 A2897 RMK AO2 P0000 T11001122 TSNO
PAKV 101805Z AUTO 04010KT 2SM -SN BR SCT019 OVC037 M10/M12 A2897 RMK AO2 P0000 T11001122 TSNO
PAKV 101753Z AUTO 04013KT 1 1/2SM -SN BR OVC020 M10/M12 A2897 RMK AO2 SLP816 P0000 60000 T11001122 11100 21117 58005 TSNO
PAKV 101740Z AUTO 04012KT 1 1/2SM -SN BR OVC022 M10/M12 A2898 RMK AO2 P0000 T11001122 TSNO
PAKV 101728Z AUTO 04010KT 2 1/2SM -SN BR BKN028 OVC038 M10/M12 A2898 RMK AO2 P0000 T11001122 TSNO
PAKV 101653Z AUTO 04009KT 5SM -SN BR OVC037 M10/M12 A2898 RMK AO2 SLP818 P0000 T11001122 TSNO
PAKV 101600Z AUTO 05009KT 4SM -SN BR OVC034 M11/M12 A2899 RMK AO2 P0000 T11061122 TSNO
PAKV 101553Z AUTO 05009KT 2 1/2SM -SN BR BKN031 OVC038 M11/M12 A2899 RMK AO2 SNB35 SLP821 P0000 T11061122 TSNO
PAKV 101548Z AUTO 04009KT 3SM -SN BR OVC031 M10/M12 A2899 RMK AO2 SNB35 P0000 TSNO
PAKV 101453Z AUTO 05008KT 10SM SCT031 OVC080 M11/M12 A2900 RMK AO2 SNB20E37 SLP825 P0000 60000 T11061122 58014 TSNO
PAKV 101353Z AUTO 04008KT 10SM OVC055 M11/M12 A2902 RMK AO2 SLP832 T11061122 TSNO
PAKV 101253Z AUTO 06007KT 9SM BKN043 OVC060 M11/M13 A2903 RMK AO2 SLP834 T11061128 TSNO
PAKV 101153Z AUTO 01004KT 8SM OVC040 M11/M13 A2904 RMK AO2 SLP839 60000 T11111128 11100 21117 58011 TSNO
PAKV 101053Z AUTO 06007KT 7SM OVC031 M11/M12 A2905 RMK AO2 SLP844 T11061122 TSNO
PAKV 100953Z AUTO 00000KT 6SM BR OVC036 M11/M12 A2906 RMK AO2 SNB10E47 SLP846 P0000 T11061122 TSNO
PAKV 100853Z AUTO 04003KT 6SM BR SCT023 OVC037 M11/M12 A2907 RMK AO2 SNB02E03 SLP850 P0000 60000 T11061117 410891111 58002 TSNO
PAKV 100753Z AUTO 00000KT 5SM BR OVC038 M11/M12 A2907 RMK AO2 SNE43 SLP850 P0000 T11061117 TSNO
PAKV 100728Z AUTO 00000KT 3SM -SN BR OVC038 M11/M12 A2907 RMK AO2 P0000 T11061122 TSNO
PAKV 100653Z AUTO 00000KT 2SM -SN BR SCT023 OVC038 M11/M12 A2908 RMK AO2 SLP852 P0000 T11061122 TSNO
PAKV 100622Z AUTO 00000KT 2SM -SN BR BKN019 OVC038 M11/M12 A2908 RMK AO2 P0000 T11061117 TSNO
PAKV 100553Z AUTO 00000KT 5SM -SN BR OVC016 M10/M12 A2908 RMK AO2 SNE11B47 SLP851 P0000 60000 T11001117 11100 21106 52001 TSNO
PAKV 100453Z AUTO 00000KT 3SM -SN BR BKN019 OVC026 M11/M12 A2908 RMK AO2 SLP852 P0000 T11061117 TSNO
PAKV 100445Z AUTO 00000KT 3SM -SN BR BKN020 BKN026 OVC032 M11/M12 A2908 RMK AO2 P0000 T11061117 TSNO
PAKV 100432Z AUTO 00000KT 1 1/2SM -SN BR BKN020 BKN035 OVC047 M11/M12 A2908 RMK AO2 P0000 T11061117 TSNO
PAKV 100427Z AUTO 00000KT 2SM -SN BR SCT020 SCT026 OVC039 M11/M12 A2908 RMK AO2 P0000 T11061117 TSNO
PAKV 100416Z AUTO 00000KT 4SM -SN BR BKN019 OVC048 M11/M12 A2908 RMK AO2 P0000 T11061117 TSNO
PAKV 100406Z AUTO 00000KT 4SM -SN BR SCT019 OVC048 M11/M12 A2908 RMK AO2 P0000 T11061117 TSNO
PAKV 100353Z AUTO 00000KT 2SM -SN BR BKN019 OVC046 M10/M12 A2908 RMK AO2 SLP850 P0000 T11001117 TSNO
PAKV 100331Z AUTO 00000KT 2 1/2SM -SN BR OVC018 M10/M12 A2907 RMK AO2 P0000 T11001117 TSNO
PAKV 100315Z AUTO 00000KT 1 3/4SM -SN BR OVC016 M10/M11 A2908 RMK AO2 P0000 T11001111 TSNO
PAKV 100253Z AUTO 00000KT 4SM -SN BR OVC012 M10/M12 A2908 RMK AO2 SNE07B33 SLP850 P0000 60000 T11001117 53001 TSNO
PAKV 100206Z AUTO 00000KT 4SM -SN BR OVC012 M10/M12 A2907 RMK AO2 P0000 T11001117 TSNO
PAKV 100153Z AUTO 00000KT 2SM -SN BR OVC013 M10/M12 A2907 RMK AO2 SLP847 P0000 T11001117 TSNO
PAKV 100141Z AUTO 00000KT 1 3/4SM -SN BR OVC013 M10/M12 A2907 RMK AO2 P0000 T11001117 TSNO
PAKV 100124Z AUTO 00000KT 3SM -SN BR OVC013 M10/M12 A2907 RMK AO2 P0000 T11001117 TSNO
PAKV 100053Z AUTO 05003KT 2 1/2SM -SN BR BKN012 OVC019 M10/M12 A2907 RMK AO2 SLP848 P0000 T11001117 TSNO
PAKV 100027Z AUTO 00000KT 2 1/2SM -SN BR OVC014 M10/M12 A2907 RMK AO2 P0000 T11001117 TSNO
PAKV 100004Z AUTO 00000KT 2SM -SN BR BKN015 OVC045 M10/M11 A2908 RMK AO2 P0000 T11001111 TSNO
PAKV 092353Z AUTO 00000KT 2SM -SN BR SCT017 BKN043 OVC049 M10/M11 A2907 RMK AO2 SLP850 P0000 60000 T11001111 11094 21100 50000 TSNO
PAKV 092313Z AUTO 00000KT 1SM -SN BR BKN030 OVC044 M09/M11 A2908 RMK AO2 P0000 T10941111 TSNO
PAKV 092309Z AUTO 00000KT 3/4SM -SN BR BKN028 OVC044 M09/M11 A2908 RMK AO2 P0000 T10941111 TSNO
PAKV 092300Z AUTO 00000KT 1SM -SN BR SCT014 OVC024 M09/M11 A2908 RMK AO2 P0000 T10941111 TSNO
PAKV 092253Z AUTO 00000KT 1 1/4SM -SN BR SCT014 OVC030 M10/M11 A2908 RMK AO2 SLP852 P0000 T11001111 TSNO
PAKV 092246Z AUTO 00000KT 1 3/4SM -SN BR BKN014 OVC030 M10/M11 A2908 RMK AO2 P0000 T11001111 TSNO
PAKV 092231Z AUTO 00000KT 2SM -SN BR OVC017 M10/M11 A2908 RMK AO2 P0000 T11001111 TSNO
PAKV 092215Z AUTO 00000KT 1 1/2SM -SN BR BKN017 OVC023 M10/M11 A2908 RMK AO2 P0000 T11001111 TSNO
PAKV 092205Z AUTO 00000KT 3/4SM -SN BR OVC020 M10/M11 A2908 RMK AO2 P0000 T11001111 TSNO
PAKV 092153Z AUTO 00000KT 1SM -SN BR OVC022 M09/M11 A2907 RMK AO2 SLP849 P0000 T10941111 TSNO
PAKV 092148Z AUTO 00000KT 1SM -SN BR OVC022 M09/M11 A2907 RMK AO2 P0000 TSNO
PAKV 092118Z AUTO 00000KT 3/4SM -SN BR VV019 M10/M11 A2907 RMK AO2 P0000 T11001111 TSNO
PAKV 092053Z AUTO 00000KT 1 1/2SM -SN BR SCT019 OVC023 M10/M11 A2907 RMK AO2 SLP848 P0000 60000 T11001111 51005 TSNO
PAKV 092033Z AUTO 00000KT 1 1/2SM -SN BR OVC017 M10/M11 A2907 RMK AO2 P0000 T11001111 TSNO
PAKV 092006Z AUTO 00000KT 2 1/2SM -SN BR SCT017 BKN027 OVC049 M10/M11 A2907 RMK AO2 P0000 T11001111 TSNO